sensor_id;sensor_type;location;lat;lon;timestamp;P1;durP1;ratioP1;P2;durP2;ratioP2
58139;SDS011;53185;47.378;18.922;2023-12-22T00:01:06;32.40;;;16.95;;
58139;SDS011;53185;47.378;18.922;2023-12-22T00:03:34;31.17;;;15.23;;
58139;SDS011;53185;47.378;18.922;2023-12-22T00:06:02;30.65;;;15.38;;
58139;SDS011;53185;47.378;18.922;2023-12-22T00:08:30;31.23;;;15.02;;
58139;SDS011;53185;47.378;18.922;2023-12-22T00:10:58;29.83;;;15.10;;
58139;SDS011;53185;47.378;18.922;2023-12-22T00:13:26;30.33;;;14.43;;
58139;SDS011;53185;47.378;18.922;2023-12-22T00:15:54;25.52;;;13.57;;
58139;SDS011;53185;47.378;18.922;2023-12-22T00:18:22;29.20;;;13.82;;
58139;SDS011;53185;47.378;18.922;2023-12-22T00:20:50;27.95;;;12.95;;
58139;SDS011;53185;47.378;18.922;2023-12-22T00:23:17;30.98;;;13.75;;
58139;SDS011;53185;47.378;18.922;2023-12-22T00:25:45;25.92;;;12.52;;
58139;SDS011;53185;47.378;18.922;2023-12-22T00:28:13;25.10;;;13.52;;
58139;SDS011;53185;47.378;18.922;2023-12-22T00:30:40;25.92;;;13.30;;
58139;SDS011;53185;47.378;18.922;2023-12-22T00:33:08;24.55;;;12.15;;
58139;SDS011;53185;47.378;18.922;2023-12-22T00:35:38;23.25;;;11.80;;
58139;SDS011;53185;47.378;18.922;2023-12-22T00:38:06;19.70;;;10.35;;
58139;SDS011;53185;47.378;18.922;2023-12-22T00:40:34;17.73;;;9.57;;
58139;SDS011;53185;47.378;18.922;2023-12-22T00:43:02;13.18;;;6.37;;
58139;SDS011;53185;47.378;18.922;2023-12-22T00:45:29;8.68;;;4.62;;
58139;SDS011;53185;47.378;18.922;2023-12-22T00:47:57;11.15;;;5.05;;
58139;SDS011;53185;47.378;18.922;2023-12-22T00:50:25;10.65;;;4.35;;
58139;SDS011;53185;47.378;18.922;2023-12-22T00:52:52;7.90;;;4.20;;
58139;SDS011;53185;47.378;18.922;2023-12-22T00:55:20;5.47;;;3.40;;
58139;SDS011;53185;47.378;18.922;2023-12-22T00:57:48;5.93;;;3.00;;
58139;SDS011;53185;47.378;18.922;2023-12-22T01:00:16;6.90;;;3.00;;
58139;SDS011;53185;47.378;18.922;2023-12-22T01:02:44;4.55;;;2.75;;
58139;SDS011;53185;47.378;18.922;2023-12-22T01:05:12;4.82;;;2.37;;
58139;SDS011;53185;47.378;18.922;2023-12-22T01:07:40;4.72;;;2.30;;
58139;SDS011;53185;47.378;18.922;2023-12-22T01:10:08;3.70;;;2.17;;
58139;SDS011;53185;47.378;18.922;2023-12-22T01:12:36;4.70;;;2.45;;
58139;SDS011;53185;47.378;18.922;2023-12-22T01:15:04;5.15;;;2.12;;
58139;SDS011;53185;47.378;18.922;2023-12-22T01:17:32;4.57;;;2.12;;
58139;SDS011;53185;47.378;18.922;2023-12-22T01:20:00;4.95;;;2.20;;
58139;SDS011;53185;47.378;18.922;2023-12-22T01:22:28;2.70;;;1.77;;
58139;SDS011;53185;47.378;18.922;2023-12-22T01:24:56;6.60;;;1.67;;
58139;SDS011;53185;47.378;18.922;2023-12-22T01:27:23;4.00;;;1.90;;
58139;SDS011;53185;47.378;18.922;2023-12-22T01:29:51;3.67;;;1.98;;
58139;SDS011;53185;47.378;18.922;2023-12-22T01:32:19;3.37;;;1.85;;
58139;SDS011;53185;47.378;18.922;2023-12-22T01:34:48;3.35;;;1.85;;
58139;SDS011;53185;47.378;18.922;2023-12-22T01:37:16;3.78;;;1.90;;
58139;SDS011;53185;47.378;18.922;2023-12-22T01:39:44;4.60;;;1.90;;
58139;SDS011;53185;47.378;18.922;2023-12-22T01:42:11;3.80;;;1.60;;
58139;SDS011;53185;47.378;18.922;2023-12-22T01:44:39;2.08;;;1.42;;
58139;SDS011;53185;47.378;18.922;2023-12-22T01:47:07;1.92;;;1.30;;
58139;SDS011;53185;47.378;18.922;2023-12-22T01:49:34;3.20;;;1.45;;
58139;SDS011;53185;47.378;18.922;2023-12-22T01:52:02;5.10;;;1.70;;
58139;SDS011;53185;47.378;18.922;2023-12-22T01:54:30;4.50;;;2.15;;
58139;SDS011;53185;47.378;18.922;2023-12-22T01:56:59;4.22;;;2.25;;
58139;SDS011;53185;47.378;18.922;2023-12-22T01:59:27;3.17;;;1.10;;
58139;SDS011;53185;47.378;18.922;2023-12-22T02:01:55;1.70;;;1.20;;
58139;SDS011;53185;47.378;18.922;2023-12-22T02:04:23;2.80;;;1.33;;
58139;SDS011;53185;47.378;18.922;2023-12-22T02:06:51;1.75;;;1.10;;
58139;SDS011;53185;47.378;18.922;2023-12-22T02:09:20;1.58;;;0.90;;
58139;SDS011;53185;47.378;18.922;2023-12-22T02:11:48;2.15;;;1.33;;
58139;SDS011;53185;47.378;18.922;2023-12-22T02:14:15;1.42;;;0.65;;
58139;SDS011;53185;47.378;18.922;2023-12-22T02:22:23;2.58;;;1.05;;
58139;SDS011;53185;47.378;18.922;2023-12-22T02:24:51;2.37;;;1.10;;
58139;SDS011;53185;47.378;18.922;2023-12-22T02:33:00;2.55;;;1.37;;
58139;SDS011;53185;47.378;18.922;2023-12-22T02:35:29;1.20;;;0.90;;
58139;SDS011;53185;47.378;18.922;2023-12-22T02:37:58;2.00;;;1.10;;
58139;SDS011;53185;47.378;18.922;2023-12-22T02:40:27;1.95;;;1.17;;
58139;SDS011;53185;47.378;18.922;2023-12-22T02:42:55;1.75;;;1.30;;
58139;SDS011;53185;47.378;18.922;2023-12-22T02:45:23;4.15;;;1.75;;
58139;SDS011;53185;47.378;18.922;2023-12-22T02:47:52;3.20;;;1.50;;
58139;SDS011;53185;47.378;18.922;2023-12-22T02:50:20;2.95;;;1.67;;
58139;SDS011;53185;47.378;18.922;2023-12-22T02:52:48;4.90;;;1.55;;
58139;SDS011;53185;47.378;18.922;2023-12-22T02:55:16;2.40;;;1.80;;
58139;SDS011;53185;47.378;18.922;2023-12-22T02:57:43;2.72;;;1.75;;
58139;SDS011;53185;47.378;18.922;2023-12-22T03:00:12;3.30;;;2.00;;
58139;SDS011;53185;47.378;18.922;2023-12-22T03:02:40;3.60;;;1.77;;
58139;SDS011;53185;47.378;18.922;2023-12-22T03:05:08;7.00;;;2.33;;
58139;SDS011;53185;47.378;18.922;2023-12-22T03:07:36;4.00;;;2.17;;
58139;SDS011;53185;47.378;18.922;2023-12-22T03:10:04;3.20;;;1.87;;
58139;SDS011;53185;47.378;18.922;2023-12-22T03:12:33;4.62;;;1.80;;
58139;SDS011;53185;47.378;18.922;2023-12-22T03:15:01;4.35;;;2.42;;
58139;SDS011;53185;47.378;18.922;2023-12-22T03:17:28;4.12;;;2.08;;
58139;SDS011;53185;47.378;18.922;2023-12-22T03:19:57;2.97;;;1.23;;
58139;SDS011;53185;47.378;18.922;2023-12-22T03:22:25;1.80;;;1.20;;
58139;SDS011;53185;47.378;18.922;2023-12-22T03:24:53;1.83;;;0.95;;
58139;SDS011;53185;47.378;18.922;2023-12-22T03:27:20;0.90;;;0.80;;
58139;SDS011;53185;47.378;18.922;2023-12-22T03:29:48;2.78;;;1.08;;
58139;SDS011;53185;47.378;18.922;2023-12-22T03:32:16;3.20;;;0.60;;
58139;SDS011;53185;47.378;18.922;2023-12-22T03:34:44;1.12;;;0.60;;
58139;SDS011;53185;47.378;18.922;2023-12-22T03:37:12;2.15;;;0.68;;
58139;SDS011;53185;47.378;18.922;2023-12-22T03:39:39;4.03;;;1.12;;
58139;SDS011;53185;47.378;18.922;2023-12-22T03:42:07;1.95;;;0.70;;
58139;SDS011;53185;47.378;18.922;2023-12-22T03:44:39;1.40;;;0.80;;
58139;SDS011;53185;47.378;18.922;2023-12-22T03:47:07;3.87;;;0.85;;
58139;SDS011;53185;47.378;18.922;2023-12-22T03:49:34;4.12;;;0.80;;
58139;SDS011;53185;47.378;18.922;2023-12-22T03:52:02;1.58;;;0.55;;
58139;SDS011;53185;47.378;18.922;2023-12-22T03:54:30;3.55;;;0.70;;
58139;SDS011;53185;47.378;18.922;2023-12-22T03:56:57;6.65;;;0.88;;
58139;SDS011;53185;47.378;18.922;2023-12-22T03:59:25;11.40;;;1.37;;
58139;SDS011;53185;47.378;18.922;2023-12-22T04:01:56;2.90;;;0.75;;
58139;SDS011;53185;47.378;18.922;2023-12-22T04:04:24;2.60;;;1.00;;
58139;SDS011;53185;47.378;18.922;2023-12-22T04:06:54;2.53;;;0.73;;
58139;SDS011;53185;47.378;18.922;2023-12-22T04:09:22;1.67;;;1.05;;
58139;SDS011;53185;47.378;18.922;2023-12-22T04:11:50;1.70;;;0.90;;
58139;SDS011;53185;47.378;18.922;2023-12-22T04:14:17;6.70;;;0.98;;
58139;SDS011;53185;47.378;18.922;2023-12-22T04:16:46;1.98;;;0.70;;
58139;SDS011;53185;47.378;18.922;2023-12-22T04:19:14;5.28;;;0.80;;
58139;SDS011;53185;47.378;18.922;2023-12-22T04:21:42;0.80;;;0.55;;
58139;SDS011;53185;47.378;18.922;2023-12-22T04:24:09;4.07;;;1.08;;
58139;SDS011;53185;47.378;18.922;2023-12-22T04:26:38;4.57;;;1.45;;
58139;SDS011;53185;47.378;18.922;2023-12-22T04:29:05;8.07;;;1.23;;
58139;SDS011;53185;47.378;18.922;2023-12-22T04:31:32;2.67;;;0.70;;
58139;SDS011;53185;47.378;18.922;2023-12-22T04:34:00;1.42;;;0.73;;
58139;SDS011;53185;47.378;18.922;2023-12-22T04:36:28;1.30;;;0.90;;
58139;SDS011;53185;47.378;18.922;2023-12-22T04:38:55;3.35;;;0.70;;
58139;SDS011;53185;47.378;18.922;2023-12-22T04:41:23;0.90;;;0.55;;
58139;SDS011;53185;47.378;18.922;2023-12-22T04:43:51;1.55;;;0.85;;
58139;SDS011;53185;47.378;18.922;2023-12-22T04:46:18;4.22;;;0.70;;
58139;SDS011;53185;47.378;18.922;2023-12-22T04:48:46;1.33;;;0.70;;
58139;SDS011;53185;47.378;18.922;2023-12-22T04:51:13;2.50;;;0.80;;
58139;SDS011;53185;47.378;18.922;2023-12-22T04:53:41;4.20;;;1.12;;
58139;SDS011;53185;47.378;18.922;2023-12-22T04:56:08;3.28;;;0.90;;
58139;SDS011;53185;47.378;18.922;2023-12-22T04:58:36;3.05;;;0.95;;
58139;SDS011;53185;47.378;18.922;2023-12-22T05:01:03;2.05;;;0.57;;
58139;SDS011;53185;47.378;18.922;2023-12-22T05:03:32;4.50;;;0.93;;
58139;SDS011;53185;47.378;18.922;2023-12-22T05:05:59;6.30;;;1.10;;
58139;SDS011;53185;47.378;18.922;2023-12-22T05:08:30;3.97;;;0.82;;
58139;SDS011;53185;47.378;18.922;2023-12-22T05:10:58;3.17;;;1.20;;
58139;SDS011;53185;47.378;18.922;2023-12-22T05:13:26;3.35;;;1.58;;
58139;SDS011;53185;47.378;18.922;2023-12-22T05:15:53;2.42;;;1.12;;
58139;SDS011;53185;47.378;18.922;2023-12-22T05:18:22;6.28;;;1.48;;
58139;SDS011;53185;47.378;18.922;2023-12-22T05:20:50;9.27;;;1.95;;
58139;SDS011;53185;47.378;18.922;2023-12-22T05:23:20;5.93;;;1.35;;
58139;SDS011;53185;47.378;18.922;2023-12-22T05:25:47;4.05;;;2.35;;
58139;SDS011;53185;47.378;18.922;2023-12-22T05:28:15;5.65;;;1.80;;
58139;SDS011;53185;47.378;18.922;2023-12-22T05:30:42;3.67;;;1.40;;
58139;SDS011;53185;47.378;18.922;2023-12-22T05:33:10;3.40;;;0.80;;
58139;SDS011;53185;47.378;18.922;2023-12-22T05:35:38;3.10;;;1.10;;
58139;SDS011;53185;47.378;18.922;2023-12-22T05:38:06;3.15;;;1.10;;
58139;SDS011;53185;47.378;18.922;2023-12-22T05:40:34;3.65;;;1.02;;
58139;SDS011;53185;47.378;18.922;2023-12-22T05:43:03;2.60;;;0.88;;
58139;SDS011;53185;47.378;18.922;2023-12-22T05:45:30;5.90;;;0.90;;
58139;SDS011;53185;47.378;18.922;2023-12-22T05:47:57;6.55;;;1.77;;
58139;SDS011;53185;47.378;18.922;2023-12-22T05:50:26;8.30;;;1.75;;
58139;SDS011;53185;47.378;18.922;2023-12-22T05:52:55;7.78;;;2.42;;
58139;SDS011;53185;47.378;18.922;2023-12-22T05:55:22;14.30;;;4.12;;
58139;SDS011;53185;47.378;18.922;2023-12-22T05:57:50;13.50;;;4.50;;
58139;SDS011;53185;47.378;18.922;2023-12-22T06:00:17;16.67;;;6.07;;
58139;SDS011;53185;47.378;18.922;2023-12-22T06:03:05;17.23;;;5.57;;
58139;SDS011;53185;47.378;18.922;2023-12-22T06:05:32;18.33;;;7.07;;
58139;SDS011;53185;47.378;18.922;2023-12-22T06:08:18;14.07;;;4.70;;
58139;SDS011;53185;47.378;18.922;2023-12-22T06:10:45;7.45;;;3.53;;
58139;SDS011;53185;47.378;18.922;2023-12-22T06:13:13;6.12;;;2.08;;
58139;SDS011;53185;47.378;18.922;2023-12-22T06:15:44;7.15;;;3.12;;
58139;SDS011;53185;47.378;18.922;2023-12-22T06:18:11;22.40;;;6.32;;
58139;SDS011;53185;47.378;18.922;2023-12-22T06:20:40;43.83;;;12.40;;
58139;SDS011;53185;47.378;18.922;2023-12-22T06:23:07;21.33;;;5.00;;
58139;SDS011;53185;47.378;18.922;2023-12-22T06:25:34;39.78;;;12.13;;
58139;SDS011;53185;47.378;18.922;2023-12-22T06:28:02;34.95;;;11.85;;
58139;SDS011;53185;47.378;18.922;2023-12-22T06:30:30;17.12;;;9.07;;
58139;SDS011;53185;47.378;18.922;2023-12-22T06:32:58;9.95;;;3.85;;
58139;SDS011;53185;47.378;18.922;2023-12-22T06:35:26;12.45;;;3.90;;
58139;SDS011;53185;47.378;18.922;2023-12-22T06:37:54;4.87;;;2.97;;
58139;SDS011;53185;47.378;18.922;2023-12-22T06:40:23;16.10;;;5.18;;
58139;SDS011;53185;47.378;18.922;2023-12-22T06:42:51;11.93;;;4.60;;
58139;SDS011;53185;47.378;18.922;2023-12-22T06:45:18;9.52;;;3.80;;
58139;SDS011;53185;47.378;18.922;2023-12-22T06:47:47;10.93;;;3.25;;
58139;SDS011;53185;47.378;18.922;2023-12-22T06:50:17;10.98;;;3.85;;
58139;SDS011;53185;47.378;18.922;2023-12-22T06:52:45;8.80;;;3.90;;
58139;SDS011;53185;47.378;18.922;2023-12-22T06:55:13;11.07;;;4.43;;
58139;SDS011;53185;47.378;18.922;2023-12-22T06:57:40;10.32;;;3.37;;
58139;SDS011;53185;47.378;18.922;2023-12-22T07:00:09;12.02;;;2.92;;
58139;SDS011;53185;47.378;18.922;2023-12-22T07:02:37;8.05;;;2.35;;
58139;SDS011;53185;47.378;18.922;2023-12-22T07:07:36;4.32;;;1.37;;
58139;SDS011;53185;47.378;18.922;2023-12-22T07:10:09;6.47;;;1.98;;
58139;SDS011;53185;47.378;18.922;2023-12-22T07:12:38;6.93;;;2.45;;
58139;SDS011;53185;47.378;18.922;2023-12-22T07:15:09;11.85;;;2.22;;
58139;SDS011;53185;47.378;18.922;2023-12-22T07:17:38;7.00;;;1.75;;
58139;SDS011;53185;47.378;18.922;2023-12-22T07:20:05;2.95;;;1.40;;
58139;SDS011;53185;47.378;18.922;2023-12-22T07:22:32;8.73;;;1.65;;
58139;SDS011;53185;47.378;18.922;2023-12-22T07:25:00;9.30;;;1.67;;
58139;SDS011;53185;47.378;18.922;2023-12-22T07:27:27;6.07;;;1.58;;
58139;SDS011;53185;47.378;18.922;2023-12-22T07:29:55;4.20;;;1.33;;
58139;SDS011;53185;47.378;18.922;2023-12-22T07:32:24;4.80;;;2.00;;
58139;SDS011;53185;47.378;18.922;2023-12-22T07:34:51;4.72;;;1.40;;
58139;SDS011;53185;47.378;18.922;2023-12-22T07:37:19;4.57;;;1.52;;
58139;SDS011;53185;47.378;18.922;2023-12-22T07:39:48;9.65;;;1.87;;
58139;SDS011;53185;47.378;18.922;2023-12-22T07:42:15;7.20;;;2.05;;
58139;SDS011;53185;47.378;18.922;2023-12-22T07:44:43;8.90;;;2.05;;
58139;SDS011;53185;47.378;18.922;2023-12-22T07:47:11;3.45;;;1.67;;
58139;SDS011;53185;47.378;18.922;2023-12-22T07:49:38;8.55;;;2.12;;
58139;SDS011;53185;47.378;18.922;2023-12-22T07:52:05;16.23;;;4.35;;
58139;SDS011;53185;47.378;18.922;2023-12-22T07:54:33;9.98;;;1.83;;
58139;SDS011;53185;47.378;18.922;2023-12-22T07:57:01;4.22;;;2.00;;
58139;SDS011;53185;47.378;18.922;2023-12-22T07:59:28;5.80;;;1.70;;
58139;SDS011;53185;47.378;18.922;2023-12-22T08:01:58;8.40;;;2.35;;
58139;SDS011;53185;47.378;18.922;2023-12-22T08:04:27;9.82;;;2.15;;
58139;SDS011;53185;47.378;18.922;2023-12-22T08:06:54;5.43;;;1.65;;
58139;SDS011;53185;47.378;18.922;2023-12-22T08:09:22;5.80;;;1.73;;
58139;SDS011;53185;47.378;18.922;2023-12-22T08:11:53;5.37;;;1.95;;
58139;SDS011;53185;47.378;18.922;2023-12-22T08:14:22;6.60;;;1.50;;
58139;SDS011;53185;47.378;18.922;2023-12-22T08:16:50;10.65;;;2.55;;
58139;SDS011;53185;47.378;18.922;2023-12-22T08:19:18;10.57;;;3.28;;
58139;SDS011;53185;47.378;18.922;2023-12-22T08:21:48;6.83;;;2.90;;
58139;SDS011;53185;47.378;18.922;2023-12-22T08:24:18;12.48;;;3.40;;
58139;SDS011;53185;47.378;18.922;2023-12-22T08:26:50;13.77;;;3.72;;
58139;SDS011;53185;47.378;18.922;2023-12-22T08:29:18;13.10;;;4.28;;
58139;SDS011;53185;47.378;18.922;2023-12-22T08:31:48;16.10;;;5.93;;
58139;SDS011;53185;47.378;18.922;2023-12-22T08:34:17;12.27;;;4.10;;
58139;SDS011;53185;47.378;18.922;2023-12-22T08:36:45;9.60;;;3.72;;
58139;SDS011;53185;47.378;18.922;2023-12-22T08:39:12;10.65;;;4.20;;
58139;SDS011;53185;47.378;18.922;2023-12-22T08:41:41;7.30;;;3.10;;
58139;SDS011;53185;47.378;18.922;2023-12-22T08:44:09;10.23;;;2.72;;
58139;SDS011;53185;47.378;18.922;2023-12-22T08:46:37;13.43;;;3.60;;
58139;SDS011;53185;47.378;18.922;2023-12-22T08:49:04;6.68;;;2.42;;
58139;SDS011;53185;47.378;18.922;2023-12-22T08:51:39;8.15;;;3.00;;
58139;SDS011;53185;47.378;18.922;2023-12-22T08:54:08;9.63;;;3.50;;
58139;SDS011;53185;47.378;18.922;2023-12-22T08:56:35;10.10;;;2.60;;
58139;SDS011;53185;47.378;18.922;2023-12-22T08:59:03;2.65;;;1.37;;
58139;SDS011;53185;47.378;18.922;2023-12-22T09:01:32;8.23;;;1.85;;
58139;SDS011;53185;47.378;18.922;2023-12-22T09:04:00;9.13;;;2.47;;
58139;SDS011;53185;47.378;18.922;2023-12-22T09:06:28;5.15;;;2.00;;
58139;SDS011;53185;47.378;18.922;2023-12-22T09:12:25;6.97;;;2.10;;
58139;SDS011;53185;47.378;18.922;2023-12-22T09:14:53;10.02;;;2.25;;
58139;SDS011;53185;47.378;18.922;2023-12-22T09:19:54;3.28;;;1.58;;
58139;SDS011;53185;47.378;18.922;2023-12-22T09:22:23;5.50;;;2.03;;
58139;SDS011;53185;47.378;18.922;2023-12-22T09:24:50;8.15;;;3.40;;
58139;SDS011;53185;47.378;18.922;2023-12-22T09:27:18;6.62;;;2.05;;
58139;SDS011;53185;47.378;18.922;2023-12-22T09:29:47;4.15;;;1.30;;
58139;SDS011;53185;47.378;18.922;2023-12-22T09:32:15;6.15;;;2.42;;
58139;SDS011;53185;47.378;18.922;2023-12-22T09:34:43;9.57;;;3.78;;
58139;SDS011;53185;47.378;18.922;2023-12-22T09:37:13;9.02;;;3.47;;
58139;SDS011;53185;47.378;18.922;2023-12-22T09:39:41;12.00;;;2.83;;
58139;SDS011;53185;47.378;18.922;2023-12-22T09:42:09;5.68;;;1.58;;
58139;SDS011;53185;47.378;18.922;2023-12-22T09:44:37;5.12;;;1.90;;
58139;SDS011;53185;47.378;18.922;2023-12-22T09:47:06;4.47;;;1.60;;
58139;SDS011;53185;47.378;18.922;2023-12-22T09:49:37;3.20;;;1.75;;
58139;SDS011;53185;47.378;18.922;2023-12-22T09:52:06;7.68;;;3.97;;
58139;SDS011;53185;47.378;18.922;2023-12-22T09:54:36;6.62;;;1.55;;
58139;SDS011;53185;47.378;18.922;2023-12-22T10:00:35;4.53;;;1.83;;
58139;SDS011;53185;47.378;18.922;2023-12-22T10:06:35;2.78;;;1.45;;
58139;SDS011;53185;47.378;18.922;2023-12-22T10:12:21;6.68;;;2.00;;
58139;SDS011;53185;47.378;18.922;2023-12-22T10:14:49;8.65;;;2.22;;
58139;SDS011;53185;47.378;18.922;2023-12-22T10:17:18;8.15;;;2.72;;
58139;SDS011;53185;47.378;18.922;2023-12-22T10:23:17;2.65;;;1.70;;
58139;SDS011;53185;47.378;18.922;2023-12-22T10:25:44;14.05;;;4.40;;
58139;SDS011;53185;47.378;18.922;2023-12-22T10:28:13;5.22;;;2.00;;
58139;SDS011;53185;47.378;18.922;2023-12-22T10:30:46;2.33;;;1.30;;
58139;SDS011;53185;47.378;18.922;2023-12-22T10:33:15;2.95;;;1.40;;
58139;SDS011;53185;47.378;18.922;2023-12-22T10:35:42;5.95;;;1.98;;
58139;SDS011;53185;47.378;18.922;2023-12-22T10:38:10;5.65;;;2.65;;
58139;SDS011;53185;47.378;18.922;2023-12-22T10:40:42;6.55;;;2.08;;
58139;SDS011;53185;47.378;18.922;2023-12-22T10:43:10;3.45;;;1.35;;
58139;SDS011;53185;47.378;18.922;2023-12-22T10:45:37;2.30;;;1.42;;
58139;SDS011;53185;47.378;18.922;2023-12-22T10:48:05;6.35;;;1.37;;
58139;SDS011;53185;47.378;18.922;2023-12-22T10:50:34;6.65;;;1.85;;
58139;SDS011;53185;47.378;18.922;2023-12-22T10:53:01;5.47;;;1.35;;
58139;SDS011;53185;47.378;18.922;2023-12-22T10:59:04;18.58;;;2.00;;
58139;SDS011;53185;47.378;18.922;2023-12-22T11:05:04;3.20;;;1.17;;
58139;SDS011;53185;47.378;18.922;2023-12-22T11:07:34;2.92;;;0.95;;
58139;SDS011;53185;47.378;18.922;2023-12-22T11:10:04;4.72;;;1.73;;
58139;SDS011;53185;47.378;18.922;2023-12-22T11:12:37;2.40;;;0.80;;
58139;SDS011;53185;47.378;18.922;2023-12-22T11:15:07;9.68;;;0.95;;
58139;SDS011;53185;47.378;18.922;2023-12-22T11:17:39;5.32;;;0.98;;
58139;SDS011;53185;47.378;18.922;2023-12-22T11:20:12;3.72;;;1.20;;
58139;SDS011;53185;47.378;18.922;2023-12-22T11:22:40;2.55;;;0.93;;
58139;SDS011;53185;47.378;18.922;2023-12-22T11:25:10;4.15;;;1.83;;
58139;SDS011;53185;47.378;18.922;2023-12-22T11:27:42;3.15;;;1.42;;
58139;SDS011;53185;47.378;18.922;2023-12-22T11:30:11;10.75;;;1.50;;
58139;SDS011;53185;47.378;18.922;2023-12-22T11:32:39;1.73;;;1.00;;
58139;SDS011;53185;47.378;18.922;2023-12-22T11:35:08;1.75;;;0.55;;
58139;SDS011;53185;47.378;18.922;2023-12-22T11:37:37;4.47;;;1.40;;
58139;SDS011;53185;47.378;18.922;2023-12-22T11:40:07;3.17;;;1.02;;
58139;SDS011;53185;47.378;18.922;2023-12-22T11:42:36;3.33;;;1.00;;
58139;SDS011;53185;47.378;18.922;2023-12-22T11:45:11;1.98;;;1.23;;
58139;SDS011;53185;47.378;18.922;2023-12-22T11:47:45;4.32;;;1.17;;
58139;SDS011;53185;47.378;18.922;2023-12-22T11:50:26;10.57;;;1.17;;
58139;SDS011;53185;47.378;18.922;2023-12-22T11:52:55;1.35;;;0.73;;
58139;SDS011;53185;47.378;18.922;2023-12-22T11:58:40;3.17;;;0.82;;
58139;SDS011;53185;47.378;18.922;2023-12-22T12:01:19;4.18;;;1.52;;
58139;SDS011;53185;47.378;18.922;2023-12-22T12:03:50;5.40;;;1.37;;
58139;SDS011;53185;47.378;18.922;2023-12-22T12:08:54;18.60;;;4.65;;
58139;SDS011;53185;47.378;18.922;2023-12-22T12:11:22;5.40;;;1.70;;
58139;SDS011;53185;47.378;18.922;2023-12-22T12:13:50;8.88;;;1.95;;
58139;SDS011;53185;47.378;18.922;2023-12-22T12:16:19;4.55;;;1.15;;
58139;SDS011;53185;47.378;18.922;2023-12-22T12:18:52;9.18;;;3.72;;
58139;SDS011;53185;47.378;18.922;2023-12-22T12:21:23;3.92;;;1.35;;
58139;SDS011;53185;47.378;18.922;2023-12-22T12:23:54;3.72;;;1.87;;
58139;SDS011;53185;47.378;18.922;2023-12-22T12:26:21;1.83;;;1.00;;
58139;SDS011;53185;47.378;18.922;2023-12-22T12:28:51;7.97;;;2.03;;
58139;SDS011;53185;47.378;18.922;2023-12-22T12:31:20;3.50;;;1.52;;
58139;SDS011;53185;47.378;18.922;2023-12-22T12:34:02;11.70;;;2.85;;
58139;SDS011;53185;47.378;18.922;2023-12-22T12:36:31;2.53;;;1.40;;
58139;SDS011;53185;47.378;18.922;2023-12-22T12:39:06;2.75;;;1.30;;
58139;SDS011;53185;47.378;18.922;2023-12-22T12:41:41;2.95;;;1.60;;
58139;SDS011;53185;47.378;18.922;2023-12-22T12:44:11;4.50;;;1.42;;
58139;SDS011;53185;47.378;18.922;2023-12-22T12:46:40;6.57;;;2.95;;
58139;SDS011;53185;47.378;18.922;2023-12-22T12:51:44;7.37;;;2.28;;
58139;SDS011;53185;47.378;18.922;2023-12-22T12:54:13;6.75;;;1.35;;
58139;SDS011;53185;47.378;18.922;2023-12-22T12:56:44;2.75;;;0.88;;
58139;SDS011;53185;47.378;18.922;2023-12-22T12:59:13;4.95;;;1.87;;
58139;SDS011;53185;47.378;18.922;2023-12-22T13:01:45;2.35;;;1.15;;
58139;SDS011;53185;47.378;18.922;2023-12-22T13:04:14;4.18;;;2.12;;
58139;SDS011;53185;47.378;18.922;2023-12-22T13:06:43;4.97;;;0.73;;
58139;SDS011;53185;47.378;18.922;2023-12-22T13:09:12;3.00;;;1.40;;
58139;SDS011;53185;47.378;18.922;2023-12-22T13:11:43;1.27;;;0.60;;
58139;SDS011;53185;47.378;18.922;2023-12-22T13:14:23;3.00;;;0.93;;
58139;SDS011;53185;47.378;18.922;2023-12-22T13:16:57;4.82;;;2.65;;
58139;SDS011;53185;47.378;18.922;2023-12-22T13:19:27;7.32;;;1.52;;
58139;SDS011;53185;47.378;18.922;2023-12-22T13:21:55;2.53;;;0.93;;
58139;SDS011;53185;47.378;18.922;2023-12-22T13:24:23;2.78;;;1.08;;
58139;SDS011;53185;47.378;18.922;2023-12-22T13:26:59;1.70;;;1.05;;
58139;SDS011;53185;47.378;18.922;2023-12-22T13:29:44;1.95;;;0.85;;
58139;SDS011;53185;47.378;18.922;2023-12-22T13:32:18;1.23;;;0.68;;
58139;SDS011;53185;47.378;18.922;2023-12-22T13:34:50;1.40;;;0.70;;
58139;SDS011;53185;47.378;18.922;2023-12-22T13:37:20;1.95;;;0.52;;
58139;SDS011;53185;47.378;18.922;2023-12-22T13:39:50;2.67;;;0.77;;
58139;SDS011;53185;47.378;18.922;2023-12-22T13:42:18;2.40;;;1.12;;
58139;SDS011;53185;47.378;18.922;2023-12-22T13:44:48;0.73;;;0.50;;
58139;SDS011;53185;47.378;18.922;2023-12-22T13:47:17;1.27;;;0.73;;
58139;SDS011;53185;47.378;18.922;2023-12-22T13:49:47;1.40;;;0.80;;
58139;SDS011;53185;47.378;18.922;2023-12-22T13:52:25;1.52;;;0.75;;
58139;SDS011;53185;47.378;18.922;2023-12-22T13:54:54;2.50;;;0.90;;
58139;SDS011;53185;47.378;18.922;2023-12-22T13:57:24;4.50;;;1.07;;
58139;SDS011;53185;47.378;18.922;2023-12-22T13:59:54;1.83;;;0.88;;
58139;SDS011;53185;47.378;18.922;2023-12-22T14:02:22;2.80;;;1.42;;
58139;SDS011;53185;47.378;18.922;2023-12-22T14:04:50;2.05;;;0.88;;
58139;SDS011;53185;47.378;18.922;2023-12-22T14:07:19;4.28;;;1.60;;
58139;SDS011;53185;47.378;18.922;2023-12-22T14:09:46;4.50;;;2.42;;
58139;SDS011;53185;47.378;18.922;2023-12-22T14:12:17;2.25;;;0.80;;
58139;SDS011;53185;47.378;18.922;2023-12-22T14:14:56;1.45;;;0.68;;
58139;SDS011;53185;47.378;18.922;2023-12-22T14:17:24;2.75;;;0.75;;
58139;SDS011;53185;47.378;18.922;2023-12-22T14:19:51;1.75;;;1.17;;
58139;SDS011;53185;47.378;18.922;2023-12-22T14:22:18;4.18;;;1.00;;
58139;SDS011;53185;47.378;18.922;2023-12-22T14:24:46;11.95;;;4.15;;
58139;SDS011;53185;47.378;18.922;2023-12-22T14:27:13;3.80;;;1.83;;
58139;SDS011;53185;47.378;18.922;2023-12-22T14:29:41;2.10;;;1.45;;
58139;SDS011;53185;47.378;18.922;2023-12-22T14:32:09;2.50;;;1.50;;
58139;SDS011;53185;47.378;18.922;2023-12-22T14:38:23;3.00;;;1.52;;
58139;SDS011;53185;47.378;18.922;2023-12-22T14:44:21;17.85;;;9.60;;
58139;SDS011;53185;47.378;18.922;2023-12-22T14:46:50;6.28;;;3.75;;
58139;SDS011;53185;47.378;18.922;2023-12-22T14:49:18;7.72;;;3.70;;
58139;SDS011;53185;47.378;18.922;2023-12-22T14:55:19;6.45;;;3.03;;
58139;SDS011;53185;47.378;18.922;2023-12-22T14:57:48;7.90;;;2.90;;
58139;SDS011;53185;47.378;18.922;2023-12-22T15:00:16;6.37;;;3.22;;
58139;SDS011;53185;47.378;18.922;2023-12-22T15:02:46;3.28;;;2.30;;
58139;SDS011;53185;47.378;18.922;2023-12-22T15:05:14;9.48;;;5.35;;
58139;SDS011;53185;47.378;18.922;2023-12-22T15:07:43;6.00;;;2.95;;
58139;SDS011;53185;47.378;18.922;2023-12-22T15:10:11;11.32;;;3.53;;
58139;SDS011;53185;47.378;18.922;2023-12-22T15:12:40;10.00;;;3.15;;
58139;SDS011;53185;47.378;18.922;2023-12-22T15:15:10;6.43;;;1.92;;
58139;SDS011;53185;47.378;18.922;2023-12-22T15:17:38;4.82;;;2.03;;
58139;SDS011;53185;47.378;18.922;2023-12-22T15:20:06;5.53;;;3.15;;
58139;SDS011;53185;47.378;18.922;2023-12-22T15:22:39;15.13;;;7.75;;
58139;SDS011;53185;47.378;18.922;2023-12-22T15:25:07;5.70;;;3.00;;
58139;SDS011;53185;47.378;18.922;2023-12-22T15:27:37;8.50;;;3.42;;
58139;SDS011;53185;47.378;18.922;2023-12-22T15:30:07;4.68;;;2.65;;
58139;SDS011;53185;47.378;18.922;2023-12-22T15:32:37;7.80;;;2.17;;
58139;SDS011;53185;47.378;18.922;2023-12-22T15:35:04;7.47;;;2.10;;
58139;SDS011;53185;47.378;18.922;2023-12-22T15:37:34;7.57;;;2.17;;
58139;SDS011;53185;47.378;18.922;2023-12-22T15:40:02;5.05;;;2.00;;